Time;durP1;ratioP1;P1;durP2;ratioP2;P2;SDS_P1;SDS_P2;PMS_P1;PMS_P2;Temp;Humidity;BMP_temperature;BMP_pressure;BME280_temperature;BME280_humidity;BME280_pressure;Samples;Min_cycle;Max_cycle;Signal;HPM_P1;HPM_P2
2022/05/11 15:39:21;;;;;;;3.67;3.20;;;27.10;99.90;;;;;;5069319;27;20639;-49
2022/05/11 15:41:47;;;;;;;4.00;3.13;;;27.10;99.90;;;;;;5044380;28;20512;-49
2022/05/11 15:44:14;;;;;;;11.40;3.50;;;27.10;99.90;;;;;;5047348;28;20466;-50
2022/05/11 15:46:41;;;;;;;8.70;4.23;;;27.40;99.90;;;;;;5035418;28;20868;-49
2022/05/11 15:49:08;;;;;;;4.07;3.00;;;27.30;99.90;;;;;;5046250;28;20489;-50
2022/05/11 15:51:35;;;;;;;3.20;3.00;;;27.30;99.90;;;;;;5045812;28;20462;-50
2022/05/11 15:54:03;;;;;;;12.83;3.00;;;27.10;99.90;;;;;;5039685;28;20466;-49
2022/05/11 15:56:31;;;;;;;5.80;3.90;;;26.90;99.90;;;;;;5043419;28;20887;-48
2022/05/11 15:58:58;;;;;;;3.17;2.77;;;27.00;99.90;;;;;;5045292;28;20490;-49
2022/05/11 16:01:28;;;;;;;8.47;2.90;;;27.30;99.90;;;;;;5044258;28;20465;-49
2022/05/11 16:03:55;;;;;;;7.23;2.97;;;27.40;99.90;;;;;;5046556;28;20504;-49
2022/05/11 16:06:22;;;;;;;4.00;2.87;;;27.40;99.90;;;;;;5038478;28;21394;-49
2022/05/11 16:08:49;;;;;;;11.63;2.90;;;27.20;99.90;;;;;;5046153;28;20485;-49
2022/05/11 16:11:23;;;;;;;3.00;2.70;;;27.00;99.90;;;;;;5042490;28;20469;-49
2022/05/11 16:13:51;;;;;;;4.93;2.70;;;26.80;99.90;;;;;;5039994;28;20454;-49
2022/05/11 16:16:18;;;;;;;10.63;3.00;;;26.70;99.90;;;;;;5040044;28;20489;-49
2022/05/11 16:21:30;;;;;;;12.83;2.90;;;26.60;99.90;;;;;;5036476;28;20457;-49
2022/05/11 16:23:57;;;;;;;3.10;2.80;;;26.70;99.90;;;;;;5047131;28;20474;-49
2022/05/11 16:26:25;;;;;;;3.50;3.20;;;26.70;99.90;;;;;;5042866;28;21033;-49
2022/05/11 16:28:54;;;;;;;3.27;2.90;;;26.70;99.90;;;;;;5037049;28;20539;-48
2022/05/11 16:31:21;;;;;;;7.63;3.10;;;26.90;99.90;;;;;;5035288;28;20458;-49
2022/05/11 16:33:48;;;;;;;5.90;3.20;;;26.90;99.90;;;;;;5039324;28;20458;-48
2022/05/11 16:36:15;;;;;;;16.03;3.20;;;26.90;99.90;;;;;;5046494;28;20558;-48
2022/05/11 16:38:42;;;;;;;3.30;3.00;;;26.90;99.90;;;;;;5047324;28;21013;-49
2022/05/11 16:41:10;;;;;;;3.80;3.47;;;26.90;99.90;;;;;;5021927;28;20559;-49
2022/05/11 16:43:38;;;;;;;5.73;3.30;;;26.90;99.90;;;;;;5039342;28;20456;-49
2022/05/11 16:46:06;;;;;;;12.83;4.33;;;26.90;99.90;;;;;;5035173;28;20465;-49
2022/05/11 16:48:33;;;;;;;3.57;2.93;;;26.90;99.90;;;;;;5037432;28;20543;-48
2022/05/11 16:51:00;;;;;;;4.80;3.20;;;26.90;99.90;;;;;;5026686;28;21041;-48
2022/05/11 16:53:27;;;;;;;3.60;3.30;;;26.90;99.90;;;;;;5030137;28;20473;-49
2022/05/11 16:55:53;;;;;;;4.83;2.87;;;26.90;99.90;;;;;;5023008;28;20550;-48
2022/05/11 16:58:22;;;;;;;3.80;2.90;;;26.70;99.90;;;;;;5011645;28;20514;-50
2022/05/11 17:00:49;;;;;;;9.43;3.00;;;26.60;99.90;;;;;;5004604;28;20474;-49
2022/05/11 17:03:17;;;;;;;3.10;2.90;;;26.50;99.90;;;;;;5012932;28;20520;-49
2022/05/11 17:05:45;;;;;;;6.13;3.20;;;26.30;99.90;;;;;;5009573;28;20549;-49
2022/05/11 17:08:12;;;;;;;7.00;3.00;;;26.30;99.90;;;;;;5029813;28;20541;-49
2022/05/11 17:10:40;;;;;;;5.70;3.03;;;26.10;99.90;;;;;;5026950;28;20517;-49
2022/05/11 17:13:07;;;;;;;3.60;3.17;;;26.00;99.90;;;;;;5018973;28;20517;-49
2022/05/11 17:15:34;;;;;;;3.83;3.00;;;26.00;99.90;;;;;;5026274;28;20550;-48
2022/05/11 17:18:02;;;;;;;7.00;3.07;;;25.90;99.90;;;;;;5007564;28;20483;-48
2022/05/11 17:20:35;;;;;;;9.20;4.23;;;25.80;99.90;;;;;;5004453;28;20904;-49
2022/05/11 17:23:02;;;;;;;5.30;3.90;;;25.70;99.90;;;;;;5018916;28;20517;-48
2022/05/11 17:25:29;;;;;;;8.73;3.40;;;25.70;99.90;;;;;;5024491;28;20455;-48
2022/05/11 17:27:56;;;;;;;8.50;3.83;;;25.70;99.90;;;;;;5005240;28;20463;-49
2022/05/11 17:30:23;;;;;;;6.33;3.10;;;25.70;99.90;;;;;;5002504;28;21115;-49
2022/05/11 17:32:50;;;;;;;3.87;3.37;;;25.60;99.90;;;;;;5005532;28;20458;-49
2022/05/11 17:35:17;;;;;;;8.67;4.30;;;25.60;99.90;;;;;;5024923;28;20487;-50
2022/05/11 17:37:45;;;;;;;4.33;3.30;;;25.50;99.90;;;;;;5014426;28;21009;-51
2022/05/11 17:40:13;;;;;;;3.47;3.27;;;25.50;99.90;;;;;;5031378;28;20490;-51
2022/05/11 17:42:41;;;;;;;3.70;3.50;;;25.40;99.90;;;;;;5027566;28;20508;-51
2022/05/11 17:45:09;;;;;;;3.60;3.30;;;25.40;99.90;;;;;;5032192;28;20454;-51
2022/05/11 17:47:36;;;;;;;4.13;3.30;;;25.40;99.90;;;;;;5022944;28;20645;-51
2022/05/11 17:50:03;;;;;;;7.90;3.80;;;25.30;99.90;;;;;;5020628;28;20542;-51
2022/05/11 17:52:29;;;;;;;5.07;3.17;;;25.30;99.90;;;;;;5016948;28;20491;-51
2022/05/11 17:54:57;;;;;;;3.40;3.20;;;25.30;99.90;;;;;;5021281;28;20458;-51
2022/05/11 17:57:25;;;;;;;7.63;3.17;;;25.20;99.90;;;;;;5011889;28;20540;-51
2022/05/11 17:59:51;;;;;;;3.53;3.27;;;25.20;99.90;;;;;;5019663;28;20497;-51
2022/05/11 18:02:18;;;;;;;8.40;4.03;;;25.10;99.90;;;;;;5015940;28;20472;-51
2022/05/11 18:04:45;;;;;;;4.70;3.40;;;25.10;99.90;;;;;;4998637;28;20460;-51
2022/05/11 18:07:12;;;;;;;3.50;3.30;;;25.00;99.90;;;;;;5011930;28;20498;-51
2022/05/11 18:09:39;;;;;;;6.20;3.50;;;25.00;99.90;;;;;;5012481;28;20478;-51
2022/05/11 18:12:08;;;;;;;4.43;3.23;;;25.00;99.90;;;;;;5015176;28;20470;-51
2022/05/11 18:14:35;;;;;;;4.20;3.80;;;24.90;99.90;;;;;;5000404;28;20538;-51
2022/05/11 18:17:01;;;;;;;4.83;3.17;;;24.90;99.90;;;;;;5001756;28;20462;-50
2022/05/11 18:19:28;;;;;;;8.50;3.80;;;24.80;99.90;;;;;;5012150;28;20486;-50
2022/05/11 18:21:55;;;;;;;3.50;3.30;;;24.80;99.90;;;;;;5017682;28;20980;-50
2022/05/11 18:24:22;;;;;;;4.60;4.10;;;24.70;99.90;;;;;;5018460;28;20462;-50
2022/05/11 18:26:48;;;;;;;4.13;3.83;;;24.60;99.90;;;;;;5021650;28;20470;-51
2022/05/11 18:29:16;;;;;;;5.93;4.50;;;24.50;99.90;;;;;;5020572;28;20482;-51
2022/05/11 18:31:43;;;;;;;3.60;3.37;;;24.40;99.90;;;;;;5027946;28;20458;-53
2022/05/11 18:34:11;;;;;;;4.47;4.10;;;24.40;99.90;;;;;;5030777;28;20894;-53
2022/05/11 18:36:38;;;;;;;4.50;4.00;;;24.40;99.90;;;;;;5025792;28;20475;-53
2022/05/11 18:39:06;;;;;;;11.27;3.87;;;24.40;99.90;;;;;;5023864;28;20497;-53
2022/05/11 18:41:33;;;;;;;6.90;3.80;;;24.30;99.90;;;;;;5025795;28;20513;-53
2022/05/11 18:44:00;;;;;;;4.03;3.60;;;24.10;99.90;;;;;;5031315;28;21062;-54
2022/05/11 18:46:28;;;;;;;8.33;3.80;;;23.80;99.90;;;;;;5020489;28;20521;-53
2022/05/11 18:48:55;;;;;;;14.83;3.30;;;23.20;99.90;;;;;;5024759;28;20501;-54
2022/05/11 18:51:23;;;;;;;11.47;3.07;;;22.90;99.90;;;;;;5019062;28;20572;-53
2022/05/11 18:53:51;;;;;;;4.37;3.43;;;22.70;99.90;;;;;;5024212;28;20494;-53
2022/05/11 18:56:18;;;;;;;8.50;3.17;;;22.50;99.90;;;;;;5027857;28;20467;-53
2022/05/11 18:58:46;;;;;;;6.90;2.90;;;22.40;99.90;;;;;;5020106;28;20474;-54
2022/05/11 19:01:13;;;;;;;3.97;2.60;;;22.20;99.90;;;;;;5023359;28;20593;-53
2022/05/11 19:03:41;;;;;;;5.33;2.70;;;22.10;99.90;;;;;;5022120;28;21022;-53
2022/05/11 19:06:07;;;;;;;2.50;2.40;;;22.00;99.90;;;;;;5028883;28;20898;-53
2022/05/11 19:08:34;;;;;;;4.37;2.60;;;21.90;99.90;;;;;;5023007;28;20502;-54
2022/05/11 19:11:01;;;;;;;3.67;3.27;;;21.90;99.90;;;;;;5022666;28;20459;-54
2022/05/11 19:13:27;;;;;;;3.20;2.90;;;21.80;99.90;;;;;;5020493;28;20462;-54
2022/05/11 19:15:54;;;;;;;3.90;2.50;;;21.80;99.90;;;;;;5027194;28;20463;-53
2022/05/11 19:18:21;;;;;;;4.63;3.00;;;21.80;99.90;;;;;;5023456;28;20490;-54
2022/05/11 19:20:49;;;;;;;2.83;2.47;;;21.70;99.90;;;;;;5025930;28;20458;-55
2022/05/11 19:23:18;;;;;;;3.47;2.40;;;21.60;99.90;;;;;;5026437;28;20517;-53
2022/05/11 19:25:45;;;;;;;3.97;2.80;;;21.50;99.90;;;;;;5021943;28;21042;-54
2022/05/11 19:28:13;;;;;;;4.53;2.60;;;21.50;99.90;;;;;;5022968;28;20532;-53
2022/05/11 19:30:40;;;;;;;2.97;2.50;;;21.40;99.90;;;;;;5024836;28;20969;-54
2022/05/11 19:33:07;;;;;;;3.07;2.50;;;21.30;99.90;;;;;;5026198;28;20909;-53
2022/05/11 19:35:34;;;;;;;4.07;3.03;;;21.30;99.90;;;;;;5028813;28;20517;-52
2022/05/11 19:38:02;;;;;;;4.73;3.50;;;21.30;99.90;;;;;;5026343;28;20462;-53
2022/05/11 19:40:29;;;;;;;3.80;2.83;;;21.20;99.90;;;;;;5025463;28;20486;-53
2022/05/11 19:42:56;;;;;;;6.83;2.97;;;21.20;99.90;;;;;;5022300;28;20466;-53
2022/05/11 19:45:23;;;;;;;7.07;4.63;;;21.10;99.90;;;;;;5022542;28;20467;-53
2022/05/11 19:47:49;;;;;;;6.43;3.40;;;21.00;99.90;;;;;;5023365;28;20456;-53
2022/05/11 19:50:21;;;;;;;5.87;3.90;;;21.00;99.90;;;;;;5025481;28;20466;-53
2022/05/11 19:52:49;;;;;;;4.23;3.37;;;20.90;99.90;;;;;;5025849;28;20485;-53
2022/05/11 19:55:17;;;;;;;4.97;3.50;;;20.90;99.90;;;;;;5026724;28;20932;-53
2022/05/11 19:57:44;;;;;;;3.90;3.60;;;20.90;99.90;;;;;;5020840;28;20466;-53
2022/05/11 20:00:15;;;;;;;3.57;3.30;;;20.90;99.90;;;;;;5024359;28;20517;-52
2022/05/11 20:02:42;;;;;;;12.80;4.10;;;20.80;99.90;;;;;;5025425;28;21002;-53
2022/05/11 20:05:10;;;;;;;5.50;4.07;;;20.70;95.30;;;;;;5024371;28;20458;-54
2022/05/11 20:07:37;;;;;;;3.67;3.43;;;20.80;93.40;;;;;;5027996;28;20459;-53
2022/05/11 20:10:05;;;;;;;10.10;4.90;;;20.80;88.80;;;;;;5025391;28;20513;-53
2022/05/11 20:12:33;;;;;;;5.77;4.43;;;20.80;83.00;;;;;;5019325;28;21124;-53
2022/05/11 20:15:00;;;;;;;4.03;3.73;;;20.90;80.10;;;;;;5024989;28;20463;-53
2022/05/11 20:17:27;;;;;;;4.20;3.87;;;20.80;75.80;;;;;;5025055;28;20510;-53
2022/05/11 20:19:55;;;;;;;9.03;3.40;;;20.80;69.30;;;;;;5024201;28;20928;-54
2022/05/11 20:22:22;;;;;;;8.47;5.10;;;20.80;64.10;;;;;;5024970;28;20459;-53
2022/05/11 20:24:49;;;;;;;8.47;3.90;;;20.70;63.30;;;;;;5024322;28;20508;-53
2022/05/11 20:27:16;;;;;;;9.20;4.10;;;20.80;58.20;;;;;;5028290;28;20462;-53
2022/05/11 20:29:45;;;;;;;8.60;4.93;;;20.80;51.80;;;;;;5025856;28;20552;-51
2022/05/11 20:35:08;;;;;;;10.50;4.87;;;20.30;99.90;;;;;;5027625;28;20481;-52
2022/05/11 20:37:37;;;;;;;5.40;4.53;;;19.80;99.90;;;;;;5022630;28;20824;-52
2022/05/11 20:40:07;;;;;;;9.63;4.73;;;19.40;67.30;;;;;;5002672;28;20490;-52
2022/05/11 20:42:35;;;;;;;10.43;5.00;;;19.20;31.10;;;;;;5008507;28;20972;-53
2022/05/11 20:45:04;;;;;;;7.17;5.07;;;18.90;99.90;;;;;;5028328;28;20463;-53
2022/05/11 20:47:30;;;;;;;20.67;4.70;;;18.70;99.90;;;;;;5030645;28;20516;-52
2022/05/11 20:49:57;;;;;;;8.23;5.00;;;18.60;99.90;;;;;;5032515;28;20891;-52
2022/05/11 20:52:24;;;;;;;8.87;5.00;;;18.40;99.90;;;;;;5024460;28;20466;-53
2022/05/11 20:54:51;;;;;;;11.80;5.50;;;18.30;99.90;;;;;;5026329;28;20512;-52
2022/05/11 20:57:17;;;;;;;12.17;6.97;;;18.20;99.90;;;;;;5017770;28;20944;-52
2022/05/11 20:59:45;;;;;;;8.33;6.43;;;18.20;99.90;;;;;;5016640;28;20478;-52
2022/05/11 21:02:13;;;;;;;6.30;5.70;;;18.10;99.90;;;;;;5020098;28;20467;-53
2022/05/11 21:04:39;;;;;;;9.20;6.00;;;18.10;99.90;;;;;;5025696;28;20458;-53
2022/05/11 21:07:07;;;;;;;6.10;5.60;;;18.10;99.90;;;;;;5028259;28;20514;-51
2022/05/11 21:09:34;;;;;;;9.67;6.40;;;18.00;99.90;;;;;;5025970;28;20471;-51
2022/05/11 21:12:00;;;;;;;6.00;5.33;;;17.90;99.90;;;;;;5027670;28;20957;-53
2022/05/11 21:14:27;;;;;;;9.47;6.50;;;17.90;99.90;;;;;;5029603;28;20463;-53
2022/05/11 21:16:53;;;;;;;9.27;7.03;;;17.80;99.90;;;;;;5029059;28;20948;-52
2022/05/11 21:19:21;;;;;;;15.50;6.07;;;17.80;99.90;;;;;;5026589;28;20490;-52
2022/05/11 21:21:48;;;;;;;12.67;6.70;;;17.80;99.90;;;;;;5029249;28;20891;-53
2022/05/11 21:24:15;;;;;;;12.63;6.80;;;17.70;99.90;;;;;;5031952;28;20474;-52
2022/05/11 21:26:42;;;;;;;12.47;6.67;;;17.70;99.90;;;;;;5031886;28;20462;-52
2022/05/11 21:29:08;;;;;;;6.80;6.10;;;17.70;99.90;;;;;;5028811;28;20489;-52
2022/05/11 21:31:35;;;;;;;6.13;5.63;;;17.70;96.60;;;;;;5022246;28;20526;-52
2022/05/11 21:34:02;;;;;;;14.50;6.80;;;17.70;95.30;;;;;;5023084;28;20467;-53
2022/05/11 21:36:29;;;;;;;8.33;6.60;;;17.70;95.60;;;;;;5027466;28;20532;-52
2022/05/11 21:38:56;;;;;;;8.50;7.20;;;17.70;96.20;;;;;;5028038;28;20541;-53
2022/05/11 21:41:23;;;;;;;9.60;6.80;;;17.60;97.00;;;;;;5027440;28;20455;-52
2022/05/11 21:43:49;;;;;;;9.50;6.57;;;17.60;91.80;;;;;;5027802;28;20467;-53
2022/05/11 21:46:16;;;;;;;7.03;6.20;;;17.60;88.30;;;;;;5026760;28;20467;-54
2022/05/11 21:48:43;;;;;;;8.13;6.40;;;17.50;84.30;;;;;;5030153;28;20482;-52
2022/05/11 21:51:10;;;;;;;6.50;5.90;;;17.50;79.90;;;;;;5028554;28;20471;-53
2022/05/11 21:53:38;;;;;;;8.80;6.80;;;17.50;75.70;;;;;;5027005;28;20509;-52
2022/05/11 21:56:05;;;;;;;11.83;6.70;;;17.50;71.10;;;;;;5026182;28;20478;-53
2022/05/11 21:58:32;;;;;;;10.40;7.00;;;17.40;75.00;;;;;;5027953;28;20487;-53
2022/05/11 22:01:22;;;;;;;8.57;7.13;;;17.40;77.00;;;;;;5026024;28;21007;-52
2022/05/11 22:03:49;;;;;;;8.07;6.87;;;17.40;77.70;;;;;;5027026;28;20468;-53
2022/05/11 22:06:16;;;;;;;16.83;7.20;;;17.30;79.70;;;;;;5026994;28;20467;-52
2022/05/11 22:08:44;;;;;;;12.00;6.80;;;17.30;77.60;;;;;;5027724;28;20513;-52
2022/05/11 22:11:11;;;;;;;9.47;5.77;;;17.30;74.80;;;;;;5022571;28;20468;-52
2022/05/11 22:13:38;;;;;;;7.60;6.90;;;17.30;72.00;;;;;;5029075;28;21209;-52
2022/05/11 22:16:05;;;;;;;6.60;6.20;;;17.20;69.90;;;;;;5030157;28;20459;-52
2022/05/11 22:18:31;;;;;;;8.00;7.30;;;17.20;67.40;;;;;;5029034;28;20485;-53
2022/05/11 22:20:59;;;;;;;8.27;7.37;;;17.20;61.90;;;;;;5025409;28;21050;-52
2022/05/11 22:23:26;;;;;;;13.30;7.30;;;17.20;59.70;;;;;;5031499;28;20462;-53
2022/05/11 22:25:54;;;;;;;7.37;6.73;;;17.20;57.40;;;;;;5027699;28;20541;-52
2022/05/11 22:28:21;;;;;;;9.03;8.00;;;17.20;58.80;;;;;;5029415;28;20491;-53
2022/05/11 22:30:49;;;;;;;14.50;7.40;;;17.20;55.50;;;;;;5026945;28;20517;-53
2022/05/11 22:33:17;;;;;;;12.47;8.93;;;17.20;55.90;;;;;;5030692;28;20467;-52
2022/05/11 22:35:47;;;;;;;8.40;7.50;;;17.20;50.80;;;;;;5023848;28;20559;-52
2022/05/11 22:38:15;;;;;;;15.90;8.10;;;17.10;51.40;;;;;;5029394;28;20490;-52
2022/05/11 22:40:42;;;;;;;13.40;8.63;;;17.10;53.30;;;;;;5026042;28;20528;-52
2022/05/11 22:43:10;;;;;;;8.87;7.77;;;17.10;51.20;;;;;;5027815;28;20467;-52
2022/05/11 22:45:37;;;;;;;13.63;8.07;;;17.00;58.20;;;;;;5024460;28;20510;-52
2022/05/11 22:48:06;;;;;;;13.10;7.53;;;17.00;62.30;;;;;;5026149;28;20458;-53
2022/05/11 22:50:33;;;;;;;8.70;7.93;;;17.00;66.80;;;;;;5027981;28;20541;-53
2022/05/11 22:52:59;;;;;;;12.87;8.07;;;17.00;69.30;;;;;;5025543;28;20516;-53
2022/05/11 22:55:27;;;;;;;8.10;7.30;;;17.00;69.10;;;;;;5025173;28;20458;-52
2022/05/11 22:57:57;;;;;;;9.10;8.20;;;17.00;65.00;;;;;;5027968;28;21369;-53
2022/05/11 23:00:28;;;;;;;14.43;8.70;;;17.00;74.30;;;;;;5023306;28;22467;-52
2022/05/11 23:02:56;;;;;;;10.70;7.83;;;17.00;92.60;;;;;;5023738;28;20463;-52
2022/05/11 23:05:23;;;;;;;12.20;6.00;;;17.10;99.90;;;;;;5029993;28;20542;-52
2022/05/11 23:07:51;;;;;;;9.10;5.07;;;17.00;99.90;;;;;;5025181;28;20572;-53
2022/05/11 23:10:21;;;;;;;11.93;4.67;;;16.90;99.90;;;;;;5021009;28;20461;-52
2022/05/11 23:12:48;;;;;;;7.30;4.37;;;16.80;99.90;;;;;;5024736;28;20454;-53
2022/05/11 23:15:15;;;;;;;17.83;4.23;;;16.60;99.90;;;;;;5025745;28;20914;-53
2022/05/11 23:17:43;;;;;;;29.50;4.53;;;16.50;99.90;;;;;;5027120;28;20513;-52
2022/05/11 23:20:12;;;;;;;8.40;3.93;;;16.40;99.90;;;;;;5023116;28;20545;-53
2022/05/11 23:22:39;;;;;;;6.37;4.00;;;16.30;99.90;;;;;;5027420;28;20467;-53
2022/05/11 23:25:07;;;;;;;9.07;3.50;;;16.20;84.40;;;;;;5025566;28;20464;-52
2022/05/11 23:27:34;;;;;;;8.73;3.60;;;16.10;84.30;;;;;;5029092;28;20463;-53
2022/05/11 23:30:00;;;;;;;7.07;4.03;;;16.00;78.40;;;;;;5027463;28;20824;-53
2022/05/11 23:32:27;;;;;;;4.70;3.47;;;15.90;76.10;;;;;;5025043;28;20458;-52
2022/05/11 23:34:55;;;;;;;4.63;3.57;;;15.90;71.20;;;;;;5021332;28;20463;-53
2022/05/11 23:37:22;;;;;;;13.17;4.50;;;15.80;69.50;;;;;;5027882;28;20525;-53
2022/05/11 23:39:48;;;;;;;7.07;3.60;;;15.90;51.70;;;;;;5024997;28;20597;-53
2022/05/11 23:42:15;;;;;;;7.33;4.30;;;15.80;53.40;;;;;;5024230;28;21021;-52
2022/05/11 23:44:42;;;;;;;7.77;3.90;;;15.80;52.70;;;;;;5028607;28;20516;-52
2022/05/11 23:47:08;;;;;;;15.27;4.10;;;15.80;45.50;;;;;;5023449;28;20474;-52
2022/05/11 23:49:35;;;;;;;5.73;3.93;;;15.90;38.50;;;;;;5027426;28;20541;-53
2022/05/11 23:52:06;;;;;;;5.17;3.63;;;15.90;32.30;;;;;;5029335;28;21015;-53
2022/05/11 23:54:35;;;;;;;4.27;3.40;;;15.90;31.00;;;;;;5027099;28;20964;-52
2022/05/11 23:57:02;;;;;;;4.77;3.80;;;15.90;32.00;;;;;;5027712;28;20508;-53
2022/05/11 23:59:29;;;;;;;5.60;3.80;;;16.00;31.50;;;;;;5027365;28;20844;-54
